Time;durP1;ratioP1;P1;durP2;ratioP2;P2;SDS_P1;SDS_P2;PMS_P1;PMS_P2;Temp;Humidity;BMP_temperature;BMP_pressure;BME280_temperature;BME280_humidity;BME280_pressure;Samples;Min_cycle;Max_cycle;Signal;HPM_P1;HPM_P2
2022/11/02 00:00:53;;;;;;;14.43;9.43;;;24.20;51.20;;;;;;6175556;28;81056;-59
2022/11/02 00:03:54;;;;;;;13.40;9.10;;;24.10;51.20;;;;;;6199085;28;80622;-58
2022/11/02 00:06:54;;;;;;;13.55;9.23;;;24.20;51.30;;;;;;6178869;28;80463;-58
2022/11/02 00:09:55;;;;;;;18.02;9.98;;;24.20;51.40;;;;;;6163443;28;81726;-58
2022/11/02 00:12:55;;;;;;;19.05;9.55;;;24.20;51.30;;;;;;6173637;28;83647;-59
2022/11/02 00:15:56;;;;;;;15.63;9.30;;;24.20;51.40;;;;;;6196847;28;82900;-59
2022/11/02 00:18:56;;;;;;;13.15;8.88;;;24.20;51.40;;;;;;6180368;28;81721;-66
2022/11/02 00:21:58;;;;;;;15.07;9.40;;;24.10;51.40;;;;;;6168343;28;80579;-67
2022/11/02 00:24:59;;;;;;;16.10;10.40;;;24.20;51.30;;;;;;6168944;28;80900;-63
2022/11/02 00:27:59;;;;;;;14.70;10.15;;;24.20;51.30;;;;;;6173893;28;85635;-64
2022/11/02 00:31:00;;;;;;;14.43;9.82;;;24.20;51.40;;;;;;6172739;28;84398;-64
2022/11/02 00:34:00;;;;;;;13.52;9.63;;;24.20;51.40;;;;;;6174642;28;90118;-65
2022/11/02 00:37:02;;;;;;;13.70;9.02;;;24.20;51.50;;;;;;6198733;28;81914;-70
2022/11/02 00:40:02;;;;;;;17.15;9.00;;;24.20;51.70;;;;;;6180827;28;80468;-67
2022/11/02 00:43:03;;;;;;;14.00;8.40;;;24.20;51.70;;;;;;6158178;28;81885;-68
2022/11/02 00:46:04;;;;;;;19.85;9.50;;;24.20;51.50;;;;;;6177682;28;84117;-69
2022/11/02 00:49:05;;;;;;;16.48;9.95;;;24.20;51.40;;;;;;6175659;28;82137;-71
2022/11/02 00:52:08;;;;;;;15.30;9.27;;;24.20;51.30;;;;;;6157894;28;83815;-71
2022/11/02 00:55:09;;;;;;;13.07;9.40;;;24.20;51.30;;;;;;6180885;28;83208;-72
2022/11/02 00:58:11;;;;;;;13.35;9.00;;;24.20;51.20;;;;;;6183362;28;83364;-72
2022/11/02 01:01:12;;;;;;;14.77;9.48;;;24.20;51.30;;;;;;6170805;28;85580;-73
2022/11/02 01:04:13;;;;;;;16.73;9.73;;;24.20;51.20;;;;;;6173478;28;80267;-74
2022/11/02 01:07:13;;;;;;;14.98;8.98;;;24.20;51.10;;;;;;6201179;28;80524;-72
2022/11/02 01:10:14;;;;;;;11.93;8.88;;;24.20;51.20;;;;;;6173331;28;83337;-72
2022/11/02 01:13:14;;;;;;;15.13;9.60;;;24.20;51.20;;;;;;6159870;28;83179;-59
2022/11/02 01:16:15;;;;;;;15.95;9.13;;;24.20;51.10;;;;;;6197680;28;80518;-60
2022/11/02 01:19:15;;;;;;;13.43;9.05;;;24.20;51.10;;;;;;6183183;28;83556;-59
2022/11/02 01:22:16;;;;;;;14.88;9.38;;;24.20;51.10;;;;;;6170196;28;80411;-60
2022/11/02 01:25:16;;;;;;;12.65;9.15;;;24.20;51.00;;;;;;6173670;28;81467;-60
2022/11/02 01:28:17;;;;;;;11.75;8.93;;;24.20;51.10;;;;;;6156679;28;81790;-59
2022/11/02 01:31:17;;;;;;;14.60;8.38;;;24.20;51.00;;;;;;6193223;28;80140;-53
2022/11/02 01:34:18;;;;;;;13.32;8.63;;;24.10;51.00;;;;;;6175971;28;81119;-56
2022/11/02 01:37:18;;;;;;;14.05;9.10;;;24.20;51.10;;;;;;6159838;28;85327;-55
2022/11/02 01:40:19;;;;;;;15.88;9.00;;;24.10;51.10;;;;;;6195591;28;80960;-56
2022/11/02 01:43:20;;;;;;;12.75;8.38;;;24.10;51.30;;;;;;6201692;28;80432;-56
2022/11/02 01:46:20;;;;;;;14.75;8.30;;;24.10;51.20;;;;;;6199030;28;80682;-55
2022/11/02 01:49:21;;;;;;;9.80;7.20;;;24.20;51.30;;;;;;6199395;28;80982;-76
2022/11/02 01:52:21;;;;;;;13.68;7.65;;;24.20;51.20;;;;;;6174653;28;80699;-76
2022/11/02 01:55:22;;;;;;;13.77;8.25;;;24.10;51.20;;;;;;6173486;28;80938;-71
2022/11/02 01:58:22;;;;;;;14.18;8.55;;;24.20;51.20;;;;;;6201794;28;80965;-71
2022/11/02 02:01:23;;;;;;;15.00;8.55;;;24.10;51.40;;;;;;6188831;28;82883;-72
2022/11/02 02:04:23;;;;;;;11.43;8.30;;;24.20;51.20;;;;;;6173990;28;82983;-71
2022/11/02 02:07:24;;;;;;;11.77;7.75;;;24.20;51.20;;;;;;6155159;28;81460;-70
2022/11/02 02:10:25;;;;;;;11.50;7.63;;;24.20;51.20;;;;;;6174460;28;85744;-57
2022/11/02 02:13:25;;;;;;;11.07;7.80;;;24.10;51.30;;;;;;6172645;28;83234;-55
2022/11/02 02:16:26;;;;;;;13.23;8.15;;;24.10;51.20;;;;;;6156059;28;86348;-53
2022/11/02 02:19:27;;;;;;;12.38;9.02;;;24.20;51.20;;;;;;6174350;28;83216;-51
2022/11/02 02:22:27;;;;;;;13.48;8.80;;;24.10;51.30;;;;;;6172050;28;83059;-53
2022/11/02 02:25:28;;;;;;;15.07;8.25;;;24.20;51.30;;;;;;6175587;28;80500;-52
2022/11/02 02:28:28;;;;;;;14.77;8.45;;;24.10;51.30;;;;;;6155412;28;81675;-57
2022/11/02 02:31:29;;;;;;;11.85;7.82;;;24.10;51.20;;;;;;6172121;28;84510;-58
2022/11/02 02:34:29;;;;;;;13.27;7.88;;;24.10;51.20;;;;;;6172365;28;82378;-59
2022/11/02 02:37:31;;;;;;;12.25;7.93;;;24.20;51.30;;;;;;6174109;28;83320;-59
2022/11/02 02:40:32;;;;;;;12.57;8.30;;;24.20;51.20;;;;;;6173589;28;82986;-58
2022/11/02 02:43:32;;;;;;;14.05;8.52;;;24.10;51.10;;;;;;6172587;28;80063;-58
2022/11/02 02:46:33;;;;;;;14.48;7.72;;;24.20;51.20;;;;;;6173093;28;83011;-55
2022/11/02 02:49:33;;;;;;;10.15;7.65;;;24.10;51.10;;;;;;6169782;28;82251;-49
2022/11/02 02:52:36;;;;;;;14.15;7.32;;;24.10;50.90;;;;;;6169014;28;81913;-57
2022/11/02 02:55:36;;;;;;;10.88;7.65;;;24.10;51.40;;;;;;6146376;28;81077;-55
2022/11/02 02:58:37;;;;;;;14.05;7.88;;;24.20;51.30;;;;;;6177039;28;80376;-57
2022/11/02 03:01:38;;;;;;;9.43;7.03;;;24.10;51.30;;;;;;6170544;28;83257;-57
2022/11/02 03:04:38;;;;;;;10.05;7.53;;;24.10;51.40;;;;;;6171628;28;83157;-72
2022/11/02 03:07:39;;;;;;;12.10;7.80;;;24.10;51.30;;;;;;6173567;28;83514;-72
2022/11/02 03:10:42;;;;;;;12.55;7.00;;;24.10;51.40;;;;;;6158286;28;83167;-69
2022/11/02 03:13:42;;;;;;;12.98;7.70;;;24.20;51.50;;;;;;6173082;28;80296;-71
2022/11/02 03:16:43;;;;;;;10.18;6.97;;;24.20;51.40;;;;;;6171942;28;83510;-74
2022/11/02 03:19:45;;;;;;;12.07;8.07;;;24.10;51.30;;;;;;6155657;28;83555;-76
2022/11/02 03:22:46;;;;;;;9.70;7.10;;;24.10;51.40;;;;;;6164492;28;80585;-74
2022/11/02 03:25:47;;;;;;;9.02;7.13;;;24.20;51.50;;;;;;6173064;28;83793;-80
2022/11/02 03:28:48;;;;;;;9.27;6.82;;;24.20;51.50;;;;;;6170806;28;83756;-77
2022/11/02 03:31:49;;;;;;;10.93;7.03;;;24.20;51.50;;;;;;6172086;28;82561;-80
2022/11/02 03:34:51;;;;;;;10.82;7.03;;;24.20;51.60;;;;;;6175180;28;83052;-77
2022/11/02 03:37:53;;;;;;;10.90;7.25;;;24.20;51.70;;;;;;6162874;28;83133;-71
2022/11/02 03:40:54;;;;;;;11.52;7.07;;;24.20;51.60;;;;;;6181066;28;83566;-73
2022/11/02 03:43:55;;;;;;;10.32;7.13;;;24.20;51.60;;;;;;6179473;28;82461;-76
2022/11/02 03:46:57;;;;;;;13.10;7.90;;;24.20;51.60;;;;;;6155444;28;82780;-75
2022/11/02 03:49:58;;;;;;;11.32;7.78;;;24.10;51.50;;;;;;6180597;28;81120;-73
2022/11/02 03:52:58;;;;;;;10.68;6.55;;;24.10;51.60;;;;;;6204734;28;83920;-75
2022/11/02 03:56:00;;;;;;;11.80;6.65;;;24.20;51.70;;;;;;6179602;28;82165;-74
2022/11/02 03:59:02;;;;;;;11.73;7.15;;;24.10;51.70;;;;;;6177237;28;85795;-58
2022/11/02 04:02:03;;;;;;;8.88;6.32;;;24.10;51.70;;;;;;6178684;28;82715;-59
2022/11/02 04:05:04;;;;;;;9.93;6.97;;;24.20;51.70;;;;;;6200343;28;84098;-59
2022/11/02 04:08:20;;;;;;;14.63;7.07;;;24.20;51.80;;;;;;6182176;28;82703;-59
2022/11/02 04:14:46;;;;;;;11.05;7.15;;;24.20;51.70;;;;;;6215532;28;83265;-58
2022/11/02 04:21:09;;;;;;;11.07;6.88;;;24.20;51.80;;;;;;6190984;28;80710;-66
2022/11/02 04:27:29;;;;;;;11.45;7.65;;;24.20;51.80;;;;;;6193302;28;82325;-66
2022/11/02 04:30:31;;;;;;;8.52;6.45;;;24.30;52.00;;;;;;6199924;28;83350;-64
2022/11/02 04:33:33;;;;;;;8.63;6.32;;;24.20;52.00;;;;;;6199035;28;80409;-63
2022/11/02 04:36:45;;;;;;;9.85;5.85;;;24.30;52.00;;;;;;6183005;28;83835;-59
2022/11/02 04:39:46;;;;;;;9.88;6.30;;;24.30;51.90;;;;;;6189135;28;82828;-58
2022/11/02 04:42:47;;;;;;;9.38;6.70;;;24.30;51.90;;;;;;6201611;28;81004;-58
2022/11/02 04:45:47;;;;;;;9.63;6.60;;;24.30;52.00;;;;;;6180881;28;83566;-57
2022/11/02 04:48:48;;;;;;;10.07;5.97;;;24.30;51.90;;;;;;6194218;28;85741;-58
2022/11/02 04:51:48;;;;;;;9.98;6.05;;;24.30;51.90;;;;;;6194823;28;83974;-57
2022/11/02 04:54:49;;;;;;;8.00;5.78;;;24.30;51.80;;;;;;6200681;28;81841;-53
2022/11/02 04:57:50;;;;;;;9.30;5.55;;;24.30;51.80;;;;;;6195046;28;83530;-55
2022/11/02 05:00:51;;;;;;;9.75;6.10;;;24.30;51.80;;;;;;6197139;28;85331;-50
2022/11/02 05:03:51;;;;;;;7.80;5.95;;;24.30;52.00;;;;;;6201371;28;81169;-55
2022/11/02 05:06:52;;;;;;;11.95;6.10;;;24.30;51.80;;;;;;6195222;28;85029;-59
2022/11/02 05:09:53;;;;;;;9.77;5.72;;;24.40;51.80;;;;;;6175311;28;83176;-62
2022/11/02 05:12:54;;;;;;;8.40;6.13;;;24.40;51.70;;;;;;6193770;28;83380;-57
2022/11/02 05:15:55;;;;;;;16.92;6.32;;;24.40;51.60;;;;;;6185814;28;83802;-59
2022/11/02 05:18:55;;;;;;;12.25;6.65;;;24.40;51.60;;;;;;6196486;28;80773;-58
2022/11/02 05:21:57;;;;;;;9.30;6.45;;;24.50;51.90;;;;;;6192136;28;83335;-56
2022/11/02 05:24:58;;;;;;;10.40;6.35;;;24.40;51.40;;;;;;6176916;28;83078;-56
2022/11/02 05:27:59;;;;;;;14.18;6.57;;;24.50;51.40;;;;;;6191012;28;83536;-59
2022/11/02 05:31:00;;;;;;;8.07;5.82;;;24.40;51.30;;;;;;6159994;28;83315;-58
2022/11/02 05:34:01;;;;;;;14.55;6.85;;;24.40;51.20;;;;;;6210023;28;83514;-59
2022/11/02 05:37:02;;;;;;;9.75;6.53;;;24.40;51.10;;;;;;6220096;28;83429;-60
2022/11/02 05:40:02;;;;;;;14.15;6.65;;;24.40;51.10;;;;;;6158199;28;81390;-57
2022/11/02 05:43:03;;;;;;;8.90;6.03;;;24.40;51.10;;;;;;6174411;28;83643;-57
2022/11/02 05:46:04;;;;;;;13.68;6.70;;;24.40;51.10;;;;;;6196866;28;83581;-58
2022/11/02 05:49:05;;;;;;;7.78;6.00;;;24.40;51.50;;;;;;6143217;28;81575;-56
2022/11/02 05:52:05;;;;;;;10.57;6.38;;;24.50;52.00;;;;;;6165511;28;80306;-60
2022/11/02 05:55:06;;;;;;;9.30;5.85;;;24.50;51.60;;;;;;6194588;28;80630;-59
2022/11/02 05:58:06;;;;;;;9.45;6.47;;;24.50;51.90;;;;;;6177294;28;80580;-59
2022/11/02 06:01:07;;;;;;;12.48;6.18;;;24.50;51.90;;;;;;6172405;28;81002;-60
2022/11/02 06:04:07;;;;;;;13.73;6.70;;;24.50;51.90;;;;;;6196436;28;80468;-58
2022/11/02 06:07:08;;;;;;;10.38;6.30;;;24.50;52.00;;;;;;6178817;28;80520;-62
2022/11/02 06:10:08;;;;;;;15.38;6.35;;;24.60;52.40;;;;;;6177296;28;80600;-60
2022/11/02 06:13:09;;;;;;;13.98;6.65;;;24.60;52.80;;;;;;6177447;28;80423;-67
2022/11/02 06:16:09;;;;;;;17.77;6.45;;;24.60;53.00;;;;;;6197101;28;81431;-61
2022/11/02 06:19:10;;;;;;;18.33;6.65;;;24.60;52.80;;;;;;6173942;28;80929;-58
2022/11/02 06:22:10;;;;;;;13.80;7.22;;;24.60;54.20;;;;;;6175561;28;81285;-59
2022/11/02 06:25:11;;;;;;;10.48;6.28;;;24.60;54.00;;;;;;6189487;28;81236;-59
2022/11/02 06:28:11;;;;;;;16.02;6.95;;;24.60;53.40;;;;;;6180413;28;81877;-61
2022/11/02 06:31:12;;;;;;;13.95;7.00;;;24.60;53.20;;;;;;6196119;28;83587;-59
2022/11/02 06:34:13;;;;;;;12.35;7.20;;;24.60;53.00;;;;;;6183015;28;81120;-60
2022/11/02 06:37:13;;;;;;;30.27;8.00;;;24.60;53.00;;;;;;6176257;28;80782;-62
2022/11/02 06:40:14;;;;;;;20.42;8.30;;;24.60;52.40;;;;;;6191214;28;83278;-60
2022/11/02 06:43:14;;;;;;;16.58;8.77;;;24.60;52.60;;;;;;6187458;28;80495;-60
2022/11/02 06:46:15;;;;;;;17.00;9.55;;;24.60;51.90;;;;;;6167534;28;86986;-53
2022/11/02 06:49:15;;;;;;;13.55;9.35;;;24.60;51.60;;;;;;6176632;28;80474;-52
2022/11/02 06:52:16;;;;;;;13.43;8.98;;;24.60;51.10;;;;;;6150892;28;89363;-54
2022/11/02 06:55:17;;;;;;;14.18;9.68;;;24.60;50.80;;;;;;6178246;28;81359;-54
2022/11/02 06:58:17;;;;;;;17.25;9.30;;;24.60;50.50;;;;;;6171919;28;80493;-56
2022/11/02 07:01:18;;;;;;;14.27;9.68;;;24.60;50.30;;;;;;6167861;28;85773;-52
2022/11/02 07:04:19;;;;;;;19.15;11.10;;;24.60;50.30;;;;;;6170830;28;80585;-53
2022/11/02 07:07:19;;;;;;;18.02;10.35;;;24.60;50.10;;;;;;6167377;28;90658;-54
2022/11/02 07:10:20;;;;;;;17.33;10.60;;;24.50;50.00;;;;;;6175894;28;85173;-52
2022/11/02 07:13:20;;;;;;;19.80;11.23;;;24.40;50.10;;;;;;6170496;28;82766;-51
2022/11/02 07:16:21;;;;;;;19.50;11.65;;;24.30;50.10;;;;;;6155733;28;86282;-50
2022/11/02 07:19:21;;;;;;;18.08;12.80;;;24.30;50.00;;;;;;6197326;28;83843;-52
2022/11/02 07:22:22;;;;;;;18.02;11.68;;;24.20;50.30;;;;;;6194459;28;83798;-51
2022/11/02 07:25:22;;;;;;;21.02;11.70;;;24.20;50.10;;;;;;6175618;28;83246;-49
2022/11/02 07:28:23;;;;;;;23.13;12.50;;;24.20;50.00;;;;;;6178228;28;83351;-48
2022/11/02 07:31:23;;;;;;;21.27;12.60;;;24.10;50.10;;;;;;6155846;28;83488;-51
2022/11/02 07:34:24;;;;;;;18.13;12.13;;;24.10;50.20;;;;;;6209101;28;83440;-52
2022/11/02 07:37:24;;;;;;;19.70;12.18;;;24.00;50.40;;;;;;6154867;28;88496;-58
2022/11/02 07:40:25;;;;;;;20.77;12.35;;;24.00;50.40;;;;;;6175679;28;90009;-68
2022/11/02 07:43:25;;;;;;;20.95;12.48;;;23.90;50.30;;;;;;6171441;28;86539;-69
2022/11/02 07:46:33;;;;;;;20.40;12.75;;;23.90;50.40;;;;;;6207112;28;87118;-70
2022/11/02 07:49:34;;;;;;;21.65;13.05;;;23.90;51.00;;;;;;6161065;28;89226;-70
2022/11/02 07:52:34;;;;;;;18.75;13.18;;;23.90;50.50;;;;;;6168927;28;83466;-72
2022/11/02 07:55:35;;;;;;;19.45;12.63;;;23.90;50.50;;;;;;6173801;28;86249;-73
2022/11/02 07:58:35;;;;;;;20.33;12.40;;;23.80;50.50;;;;;;6177208;28;83110;-60
2022/11/02 08:01:36;;;;;;;20.88;12.25;;;23.90;50.60;;;;;;6172343;28;83211;-60
2022/11/02 08:04:36;;;;;;;23.52;12.25;;;23.90;50.50;;;;;;6173577;28;87912;-61
2022/11/02 08:07:37;;;;;;;21.15;13.05;;;23.90;50.40;;;;;;6172858;28;83952;-60
2022/11/02 08:10:37;;;;;;;20.55;13.63;;;23.80;50.50;;;;;;6174044;28;83110;-62
2022/11/02 08:13:38;;;;;;;18.45;11.82;;;23.80;50.50;;;;;;6165933;28;83315;-61
2022/11/02 08:16:39;;;;;;;17.30;11.52;;;23.80;50.60;;;;;;6167346;28;83488;-61
2022/11/02 08:19:39;;;;;;;24.60;11.68;;;23.90;50.60;;;;;;6173993;28;85052;-60
2022/11/02 08:22:40;;;;;;;24.67;11.88;;;24.00;50.40;;;;;;6187118;28;82926;-59
2022/11/02 08:25:40;;;;;;;20.48;12.40;;;24.20;50.30;;;;;;6189283;28;83484;-59
2022/11/02 08:28:41;;;;;;;18.10;12.20;;;24.20;50.40;;;;;;6189043;28;83986;-60
2022/11/02 08:31:41;;;;;;;20.75;13.48;;;24.30;50.10;;;;;;6194435;28;86563;-60
2022/11/02 08:34:42;;;;;;;23.35;12.18;;;24.10;50.20;;;;;;6192439;28;84153;-60
2022/11/02 08:37:42;;;;;;;18.88;11.40;;;24.20;50.10;;;;;;6197069;28;84686;-60
2022/11/02 08:40:43;;;;;;;20.88;10.88;;;24.40;50.10;;;;;;6196743;28;83221;-60
2022/11/02 08:43:44;;;;;;;14.38;10.00;;;24.60;49.70;;;;;;6198118;28;83502;-59
2022/11/02 08:46:44;;;;;;;16.88;10.55;;;24.80;49.50;;;;;;6192491;28;84287;-59
2022/11/02 08:49:46;;;;;;;15.77;10.13;;;24.90;49.30;;;;;;6200162;28;83559;-60
2022/11/02 08:52:46;;;;;;;16.65;9.15;;;25.00;49.30;;;;;;6176185;28;90181;-59
2022/11/02 08:55:47;;;;;;;13.88;9.25;;;25.10;49.10;;;;;;6191318;28;82886;-60
2022/11/02 08:58:47;;;;;;;17.33;9.43;;;25.30;49.20;;;;;;6200683;28;80427;-61
2022/11/02 09:01:48;;;;;;;20.25;9.38;;;25.30;48.90;;;;;;6200123;28;83258;-61
2022/11/02 09:04:48;;;;;;;15.48;8.65;;;25.40;48.90;;;;;;6196659;28;80187;-62
2022/11/02 09:07:49;;;;;;;15.63;7.68;;;25.50;48.80;;;;;;6200023;28;80236;-62
2022/11/02 09:10:49;;;;;;;14.93;8.13;;;25.50;48.80;;;;;;6196037;28;81182;-60
2022/11/02 09:13:50;;;;;;;15.15;8.68;;;25.60;48.60;;;;;;6200972;28;80528;-59
2022/11/02 09:16:50;;;;;;;12.85;7.78;;;25.70;48.60;;;;;;6175804;28;81709;-60
2022/11/02 09:19:51;;;;;;;12.40;7.70;;;25.70;48.60;;;;;;6200313;28;81122;-59
2022/11/02 09:22:51;;;;;;;14.23;7.38;;;25.80;48.60;;;;;;6196013;28;83185;-60
2022/11/02 09:25:52;;;;;;;14.52;7.90;;;25.90;48.60;;;;;;6200365;28;80819;-61
2022/11/02 09:28:53;;;;;;;11.63;8.35;;;25.90;48.50;;;;;;6197710;28;80980;-54
2022/11/02 09:31:53;;;;;;;12.77;7.80;;;26.00;48.50;;;;;;6193022;28;80901;-49
2022/11/02 09:34:54;;;;;;;11.95;7.57;;;26.10;48.30;;;;;;6199121;28;83002;-56
2022/11/02 09:37:54;;;;;;;13.80;7.75;;;26.10;48.20;;;;;;6199590;28;80226;-57
2022/11/02 09:40:55;;;;;;;11.95;7.53;;;26.20;48.10;;;;;;6198615;28;80397;-58
2022/11/02 09:43:55;;;;;;;12.10;7.90;;;26.20;47.90;;;;;;6198100;28;80496;-57
2022/11/02 09:46:56;;;;;;;11.95;7.78;;;26.30;47.90;;;;;;6194110;28;80791;-57
2022/11/02 09:49:56;;;;;;;13.45;7.70;;;26.40;47.90;;;;;;6174371;28;86676;-56
2022/11/02 09:52:57;;;;;;;13.95;7.72;;;26.50;47.90;;;;;;6177358;28;82807;-55
2022/11/02 09:55:57;;;;;;;15.80;8.15;;;26.50;48.10;;;;;;6164056;28;82279;-55
2022/11/02 09:58:58;;;;;;;12.23;8.50;;;26.50;48.10;;;;;;6169378;28;80852;-55
2022/11/02 10:01:58;;;;;;;14.82;8.18;;;26.60;48.00;;;;;;6177328;28;80432;-53
2022/11/02 10:04:59;;;;;;;15.07;8.45;;;26.60;47.90;;;;;;6173632;28;80964;-56
2022/11/02 10:07:59;;;;;;;14.52;8.18;;;26.70;47.80;;;;;;6171426;28;80761;-68
2022/11/02 10:11:00;;;;;;;12.88;7.78;;;26.70;47.50;;;;;;6170659;28;80617;-68
2022/11/02 10:14:01;;;;;;;14.55;8.45;;;26.70;47.30;;;;;;6180720;28;80812;-66
2022/11/02 10:17:01;;;;;;;14.07;6.75;;;26.80;47.00;;;;;;6183574;28;83712;-66
2022/11/02 10:20:02;;;;;;;11.50;7.10;;;26.80;47.00;;;;;;6171563;28;80950;-66
2022/11/02 10:23:04;;;;;;;13.13;7.47;;;26.80;47.00;;;;;;6178307;28;80296;-67
2022/11/02 10:26:04;;;;;;;16.85;7.68;;;26.90;46.90;;;;;;6194782;28;82567;-65
2022/11/02 10:29:05;;;;;;;13.15;7.00;;;27.00;46.90;;;;;;6173502;28;80262;-65
2022/11/02 10:32:05;;;;;;;12.15;6.55;;;27.00;46.80;;;;;;6191732;28;81390;-65
2022/11/02 10:35:06;;;;;;;11.13;6.00;;;27.10;46.60;;;;;;6178497;28;80428;-66
2022/11/02 10:38:06;;;;;;;12.23;6.63;;;27.10;46.50;;;;;;6186717;28;81649;-66
2022/11/02 10:41:07;;;;;;;11.68;6.55;;;27.10;46.30;;;;;;6173217;28;81277;-65
2022/11/02 10:44:07;;;;;;;11.95;6.45;;;27.10;46.70;;;;;;6170150;28;80413;-70
2022/11/02 10:47:08;;;;;;;7.03;5.53;;;27.20;46.10;;;;;;6171887;28;80506;-68
2022/11/02 10:50:09;;;;;;;12.27;6.50;;;27.20;46.10;;;;;;6174517;28;80306;-68
2022/11/02 10:53:09;;;;;;;8.57;6.03;;;27.30;45.50;;;;;;6173518;28;81849;-68
2022/11/02 10:56:10;;;;;;;14.52;6.78;;;27.30;45.80;;;;;;6171936;28;82110;-69
2022/11/02 10:59:11;;;;;;;11.68;5.93;;;27.30;45.40;;;;;;6157388;28;82395;-69
2022/11/02 11:02:12;;;;;;;8.43;5.88;;;27.30;45.50;;;;;;6173009;28;80580;-69
2022/11/02 11:05:15;;;;;;;9.23;6.45;;;27.30;45.10;;;;;;6173019;28;80963;-67
2022/11/02 11:08:16;;;;;;;9.63;5.82;;;27.20;44.70;;;;;;6171922;28;85256;-68
2022/11/02 11:11:16;;;;;;;10.50;6.13;;;27.20;44.40;;;;;;6172950;28;81289;-68
2022/11/02 11:14:17;;;;;;;8.05;5.53;;;27.20;44.30;;;;;;6167945;28;81782;-66
2022/11/02 11:17:17;;;;;;;9.32;5.28;;;27.20;43.90;;;;;;6187322;28;80553;-67
2022/11/02 11:20:18;;;;;;;7.82;4.95;;;27.20;44.00;;;;;;6176580;28;80573;-55
2022/11/02 11:23:19;;;;;;;10.45;4.47;;;27.20;44.00;;;;;;6163230;28;81046;-58
2022/11/02 11:26:19;;;;;;;10.77;5.40;;;27.10;43.90;;;;;;6176085;28;87204;-58
2022/11/02 11:29:20;;;;;;;15.75;5.85;;;27.10;43.70;;;;;;6190074;28;81204;-58
2022/11/02 11:32:20;;;;;;;11.38;5.28;;;27.10;43.80;;;;;;6173889;28;81292;-59
2022/11/02 11:35:21;;;;;;;8.10;4.80;;;27.10;44.00;;;;;;6155142;28;82315;-58
2022/11/02 11:38:21;;;;;;;10.50;4.95;;;27.00;43.80;;;;;;6189593;28;80659;-63
2022/11/02 11:41:22;;;;;;;11.63;4.65;;;27.10;43.80;;;;;;6194489;28;83311;-64
2022/11/02 11:44:22;;;;;;;8.95;4.50;;;27.10;44.40;;;;;;6206840;28;80393;-61
2022/11/02 11:47:23;;;;;;;6.70;4.35;;;27.10;44.60;;;;;;6172333;28;81313;-61
2022/11/02 11:50:23;;;;;;;9.20;4.50;;;27.10;44.00;;;;;;6169892;28;80743;-74
2022/11/02 11:53:24;;;;;;;9.43;4.32;;;27.10;44.00;;;;;;6174880;28;80767;-68
2022/11/02 11:56:25;;;;;;;7.97;4.00;;;27.00;43.70;;;;;;6185347;28;80528;-64
2022/11/02 11:59:25;;;;;;;6.15;4.18;;;27.00;43.60;;;;;;6159308;28;82687;-63
2022/11/02 12:02:26;;;;;;;8.25;4.32;;;27.00;43.90;;;;;;6179942;28;82829;-62
2022/11/02 12:05:26;;;;;;;9.90;4.68;;;27.00;43.20;;;;;;6159894;28;80996;-66
2022/11/02 12:08:27;;;;;;;14.20;6.28;;;27.10;43.60;;;;;;6163109;28;83537;-67
2022/11/02 12:11:27;;;;;;;21.88;7.20;;;27.10;43.70;;;;;;6180979;28;86095;-64
2022/11/02 12:14:28;;;;;;;20.20;6.88;;;27.00;43.10;;;;;;6183057;28;86018;-58
2022/11/02 12:17:28;;;;;;;18.90;6.18;;;27.00;43.00;;;;;;6169658;28;83494;-58
2022/11/02 12:20:29;;;;;;;12.00;5.28;;;27.00;42.40;;;;;;6176023;28;81327;-58
2022/11/02 12:23:29;;;;;;;13.63;5.47;;;27.00;42.50;;;;;;6175759;28;81403;-58
2022/11/02 12:26:30;;;;;;;11.35;4.93;;;27.00;42.10;;;;;;6182772;28;80903;-58
2022/11/02 12:29:30;;;;;;;9.43;4.43;;;26.90;41.60;;;;;;6174625;28;80279;-57
2022/11/02 12:32:31;;;;;;;7.15;3.97;;;27.00;41.40;;;;;;6177787;28;83089;-63
2022/11/02 12:35:31;;;;;;;9.43;4.70;;;27.00;41.60;;;;;;6179706;28;81490;-64
2022/11/02 12:38:32;;;;;;;8.63;4.13;;;26.90;41.30;;;;;;6173992;28;82943;-63
2022/11/02 12:41:35;;;;;;;8.13;3.85;;;26.80;41.40;;;;;;6193989;28;82027;-65
2022/11/02 12:44:36;;;;;;;7.95;4.50;;;26.80;41.60;;;;;;6198783;28;80961;-64
2022/11/02 12:47:36;;;;;;;5.07;3.83;;;26.80;41.80;;;;;;6170040;28;82195;-63
2022/11/02 12:50:37;;;;;;;11.93;4.47;;;26.70;41.40;;;;;;6189194;28;81385;-62
2022/11/02 12:53:37;;;;;;;8.15;4.82;;;26.50;41.30;;;;;;6171855;28;85526;-57
2022/11/02 12:56:38;;;;;;;9.77;4.57;;;26.40;41.50;;;;;;6176527;28;80614;-58
2022/11/02 12:59:40;;;;;;;9.55;4.75;;;26.30;41.50;;;;;;6174493;28;88552;-58
2022/11/02 13:02:41;;;;;;;6.97;3.58;;;26.20;41.70;;;;;;6170807;28;81007;-55
2022/11/02 13:05:42;;;;;;;6.53;4.00;;;26.20;41.70;;;;;;6173971;28;81362;-59
2022/11/02 13:08:42;;;;;;;8.23;4.00;;;26.30;41.80;;;;;;6173409;28;81125;-62
2022/11/02 13:11:43;;;;;;;8.27;3.97;;;26.50;41.50;;;;;;6166057;28;85847;-63
2022/11/02 13:14:44;;;;;;;7.10;4.47;;;26.60;41.30;;;;;;6188652;28;81217;-63
2022/11/02 13:17:44;;;;;;;7.90;4.28;;;26.60;41.00;;;;;;6190168;28;80647;-67
2022/11/02 13:20:45;;;;;;;7.20;4.63;;;26.70;40.80;;;;;;6175355;28;84569;-62
2022/11/02 13:23:45;;;;;;;6.82;4.03;;;26.90;40.90;;;;;;6163798;28;80564;-65
2022/11/02 13:26:46;;;;;;;9.50;4.72;;;27.30;40.40;;;;;;6190910;28;80454;-63
2022/11/02 13:29:46;;;;;;;9.80;4.63;;;27.80;39.50;;;;;;6195242;28;80524;-64
2022/11/02 13:32:47;;;;;;;8.50;5.30;;;28.50;39.00;;;;;;6164726;28;81663;-63
2022/11/02 13:35:49;;;;;;;10.70;4.88;;;29.00;38.30;;;;;;6177712;28;81244;-63
2022/11/02 13:38:49;;;;;;;11.40;5.10;;;29.50;37.70;;;;;;6177837;28;84536;-63
2022/11/02 13:41:50;;;;;;;28.27;5.50;;;30.00;36.90;;;;;;6146987;28;84858;-62
2022/11/02 13:44:50;;;;;;;7.15;4.10;;;30.40;36.80;;;;;;6166465;28;85662;-63
2022/11/02 13:47:51;;;;;;;5.47;4.13;;;30.50;36.50;;;;;;6168561;28;81002;-62
2022/11/02 13:50:51;;;;;;;6.15;4.57;;;30.70;36.10;;;;;;6167348;28;87220;-63
2022/11/02 13:53:52;;;;;;;5.20;3.97;;;30.50;35.80;;;;;;6166933;28;80721;-62
2022/11/02 13:56:52;;;;;;;6.00;4.38;;;30.60;35.80;;;;;;6166071;28;83723;-61
2022/11/02 13:59:53;;;;;;;5.88;3.85;;;30.50;35.90;;;;;;6172667;28;81715;-61
2022/11/02 14:02:53;;;;;;;8.05;4.63;;;30.30;35.90;;;;;;6179941;28;80412;-61
2022/11/02 14:05:54;;;;;;;6.72;4.20;;;30.10;36.30;;;;;;6181610;28;84247;-62
2022/11/02 14:08:54;;;;;;;5.63;3.50;;;30.00;36.60;;;;;;6198353;28;81423;-61
2022/11/02 14:11:55;;;;;;;7.13;4.10;;;29.90;37.20;;;;;;6195977;28;85848;-61
2022/11/02 14:14:55;;;;;;;6.63;4.45;;;29.50;37.70;;;;;;6188257;28;80541;-61
2022/11/02 14:18:00;;;;;;;7.50;4.55;;;29.00;38.20;;;;;;6195016;28;85592;-61
2022/11/02 14:21:01;;;;;;;8.07;3.80;;;28.60;38.90;;;;;;6170244;28;80545;-61
2022/11/02 14:24:01;;;;;;;6.05;3.90;;;28.20;39.50;;;;;;6177815;28;82383;-70
2022/11/02 14:27:05;;;;;;;7.57;4.47;;;28.00;40.20;;;;;;6198644;28;81352;-69
2022/11/02 14:30:05;;;;;;;8.18;4.10;;;27.60;40.50;;;;;;6164701;28;80463;-69
2022/11/02 14:33:06;;;;;;;7.57;4.38;;;27.40;41.10;;;;;;6171995;28;80288;-65
2022/11/02 14:36:07;;;;;;;7.20;4.13;;;27.10;41.30;;;;;;6183320;28;81245;-67
2022/11/02 14:39:07;;;;;;;9.90;4.80;;;27.00;41.70;;;;;;6199797;28;85355;-67
2022/11/02 14:42:08;;;;;;;7.45;4.97;;;26.90;42.10;;;;;;6180048;28;80763;-64
2022/11/02 14:45:08;;;;;;;9.43;4.63;;;26.70;42.50;;;;;;6193196;28;80579;-63
2022/11/02 14:48:09;;;;;;;9.20;4.95;;;26.60;42.70;;;;;;6180552;28;83537;-64
2022/11/02 14:51:09;;;;;;;15.13;6.10;;;26.40;43.20;;;;;;6180230;28;80841;-64
2022/11/02 14:54:10;;;;;;;10.85;4.93;;;26.30;43.40;;;;;;6169330;28;80867;-64
2022/11/02 14:57:10;;;;;;;9.93;4.95;;;26.10;43.70;;;;;;6166772;28;80797;-62
2022/11/02 15:00:11;;;;;;;12.00;5.30;;;26.00;44.00;;;;;;6175519;28;82984;-62
2022/11/02 15:03:11;;;;;;;7.00;5.10;;;25.90;44.30;;;;;;6191678;28;80520;-63
2022/11/02 15:06:12;;;;;;;10.10;5.68;;;25.80;44.70;;;;;;6182027;28;82725;-65
2022/11/02 15:09:14;;;;;;;9.93;5.80;;;25.70;45.00;;;;;;6171024;28;83371;-64
2022/11/02 15:12:15;;;;;;;11.98;5.35;;;25.60;45.20;;;;;;6169842;28;83786;-64
2022/11/02 15:15:15;;;;;;;9.75;5.03;;;25.60;45.60;;;;;;6189872;28;80738;-67
2022/11/02 15:18:16;;;;;;;7.72;4.82;;;25.50;45.70;;;;;;6176182;28;86546;-63
2022/11/02 15:21:16;;;;;;;14.35;5.30;;;25.50;45.90;;;;;;6182414;28;80824;-65
2022/11/02 15:24:17;;;;;;;12.32;4.28;;;25.40;46.00;;;;;;6160907;28;83532;-65
2022/11/02 15:27:17;;;;;;;7.93;4.45;;;25.40;46.10;;;;;;6176514;28;81405;-64
2022/11/02 15:30:18;;;;;;;11.02;5.40;;;25.30;46.40;;;;;;6181491;28;80959;-62
2022/11/02 15:33:18;;;;;;;7.13;4.97;;;25.30;46.40;;;;;;6177440;28;80907;-60
2022/11/02 15:36:19;;;;;;;8.95;5.18;;;25.30;46.30;;;;;;6185982;28;81256;-56
2022/11/02 15:39:20;;;;;;;9.05;5.10;;;25.20;46.20;;;;;;6177681;28;80311;-60